sensor_id;sensor_type;location;lat;lon;timestamp;temperature;humidity
26964;DHT22;14521;48.148;-1.656;2023-05-07T00:02:38;21.20;95.90
26964;DHT22;14521;48.148;-1.656;2023-05-07T00:06:01;21.20;95.90
26964;DHT22;14521;48.148;-1.656;2023-05-07T00:09:23;21.20;95.90
26964;DHT22;14521;48.148;-1.656;2023-05-07T00:12:46;21.20;95.90
26964;DHT22;14521;48.148;-1.656;2023-05-07T00:16:08;21.20;95.80
26964;DHT22;14521;48.148;-1.656;2023-05-07T00:19:30;21.20;95.80
26964;DHT22;14521;48.148;-1.656;2023-05-07T00:22:53;21.20;95.80
26964;DHT22;14521;48.148;-1.656;2023-05-07T00:26:15;21.20;95.80
26964;DHT22;14521;48.148;-1.656;2023-05-07T00:29:39;21.20;95.80
26964;DHT22;14521;48.148;-1.656;2023-05-07T00:33:01;21.20;95.80
26964;DHT22;14521;48.148;-1.656;2023-05-07T00:36:24;21.20;95.70
26964;DHT22;14521;48.148;-1.656;2023-05-07T00:39:48;21.20;95.80
26964;DHT22;14521;48.148;-1.656;2023-05-07T00:43:10;21.20;95.70
26964;DHT22;14521;48.148;-1.656;2023-05-07T00:46:33;21.20;95.70
26964;DHT22;14521;48.148;-1.656;2023-05-07T00:49:56;21.20;95.70
26964;DHT22;14521;48.148;-1.656;2023-05-07T00:53:19;21.20;95.70
26964;DHT22;14521;48.148;-1.656;2023-05-07T00:56:42;21.20;95.60
26964;DHT22;14521;48.148;-1.656;2023-05-07T01:00:06;21.20;95.60
26964;DHT22;14521;48.148;-1.656;2023-05-07T01:03:31;21.20;95.10
26964;DHT22;14521;48.148;-1.656;2023-05-07T01:06:55;21.20;95.20
26964;DHT22;14521;48.148;-1.656;2023-05-07T01:10:19;21.20;95.40
26964;DHT22;14521;48.148;-1.656;2023-05-07T01:13:43;21.10;95.70
26964;DHT22;14521;48.148;-1.656;2023-05-07T01:17:05;21.20;95.60
26964;DHT22;14521;48.148;-1.656;2023-05-07T01:20:30;21.20;95.60
26964;DHT22;14521;48.148;-1.656;2023-05-07T01:23:54;21.20;95.50
26964;DHT22;14521;48.148;-1.656;2023-05-07T01:27:17;21.20;95.40
26964;DHT22;14521;48.148;-1.656;2023-05-07T01:30:42;21.20;95.40
26964;DHT22;14521;48.148;-1.656;2023-05-07T01:34:08;21.20;95.30
26964;DHT22;14521;48.148;-1.656;2023-05-07T01:37:32;21.20;95.40
26964;DHT22;14521;48.148;-1.656;2023-05-07T01:40:55;21.20;95.30
26964;DHT22;14521;48.148;-1.656;2023-05-07T01:44:18;21.20;95.30
26964;DHT22;14521;48.148;-1.656;2023-05-07T01:47:41;21.20;95.30
26964;DHT22;14521;48.148;-1.656;2023-05-07T01:51:04;21.20;95.30
26964;DHT22;14521;48.148;-1.656;2023-05-07T01:54:27;21.20;95.30
26964;DHT22;14521;48.148;-1.656;2023-05-07T01:57:51;21.20;95.30
26964;DHT22;14521;48.148;-1.656;2023-05-07T02:01:14;21.20;95.30
26964;DHT22;14521;48.148;-1.656;2023-05-07T02:04:37;21.20;95.30
26964;DHT22;14521;48.148;-1.656;2023-05-07T02:08:00;21.20;95.30
26964;DHT22;14521;48.148;-1.656;2023-05-07T02:11:24;21.20;95.30
26964;DHT22;14521;48.148;-1.656;2023-05-07T02:14:47;21.20;95.30
26964;DHT22;14521;48.148;-1.656;2023-05-07T02:18:09;21.10;95.30
26964;DHT22;14521;48.148;-1.656;2023-05-07T02:21:32;21.20;95.30
26964;DHT22;14521;48.148;-1.656;2023-05-07T02:24:54;21.10;95.20
26964;DHT22;14521;48.148;-1.656;2023-05-07T02:28:17;21.20;95.30
26964;DHT22;14521;48.148;-1.656;2023-05-07T02:31:50;21.20;95.20
26964;DHT22;14521;48.148;-1.656;2023-05-07T02:35:13;21.20;95.20
26964;DHT22;14521;48.148;-1.656;2023-05-07T02:38:35;21.20;95.20
26964;DHT22;14521;48.148;-1.656;2023-05-07T02:41:58;21.10;95.20
26964;DHT22;14521;48.148;-1.656;2023-05-07T02:45:21;21.10;95.20
26964;DHT22;14521;48.148;-1.656;2023-05-07T02:48:45;21.10;95.20
26964;DHT22;14521;48.148;-1.656;2023-05-07T02:52:08;21.10;95.20
26964;DHT22;14521;48.148;-1.656;2023-05-07T02:55:30;21.10;95.20
26964;DHT22;14521;48.148;-1.656;2023-05-07T02:58:53;21.10;95.20
26964;DHT22;14521;48.148;-1.656;2023-05-07T03:02:18;21.20;95.20
26964;DHT22;14521;48.148;-1.656;2023-05-07T03:05:40;21.10;95.20
26964;DHT22;14521;48.148;-1.656;2023-05-07T03:09:03;21.10;95.10
26964;DHT22;14521;48.148;-1.656;2023-05-07T03:12:25;21.10;95.10
26964;DHT22;14521;48.148;-1.656;2023-05-07T03:15:47;21.10;95.10
26964;DHT22;14521;48.148;-1.656;2023-05-07T03:19:10;21.10;95.10
26964;DHT22;14521;48.148;-1.656;2023-05-07T03:22:32;21.10;95.10
26964;DHT22;14521;48.148;-1.656;2023-05-07T03:25:54;21.10;95.10
26964;DHT22;14521;48.148;-1.656;2023-05-07T03:29:17;21.10;95.10
26964;DHT22;14521;48.148;-1.656;2023-05-07T03:32:39;21.10;95.10
26964;DHT22;14521;48.148;-1.656;2023-05-07T03:36:05;21.10;95.10
26964;DHT22;14521;48.148;-1.656;2023-05-07T03:39:28;21.10;95.10
26964;DHT22;14521;48.148;-1.656;2023-05-07T03:42:51;21.10;95.10
26964;DHT22;14521;48.148;-1.656;2023-05-07T03:46:15;21.10;95.10
26964;DHT22;14521;48.148;-1.656;2023-05-07T03:49:39;21.10;95.10
26964;DHT22;14521;48.148;-1.656;2023-05-07T03:53:01;21.10;95.10
26964;DHT22;14521;48.148;-1.656;2023-05-07T03:56:25;21.10;95.10
26964;DHT22;14521;48.148;-1.656;2023-05-07T03:59:51;21.10;95.20
26964;DHT22;14521;48.148;-1.656;2023-05-07T04:03:14;21.10;95.20
26964;DHT22;14521;48.148;-1.656;2023-05-07T04:06:37;21.10;95.30
26964;DHT22;14521;48.148;-1.656;2023-05-07T04:09:59;21.10;95.20
26964;DHT22;14521;48.148;-1.656;2023-05-07T04:13:22;21.10;95.20
26964;DHT22;14521;48.148;-1.656;2023-05-07T04:16:45;21.10;95.20
26964;DHT22;14521;48.148;-1.656;2023-05-07T04:20:10;21.10;95.20
26964;DHT22;14521;48.148;-1.656;2023-05-07T04:23:33;21.10;95.30
26964;DHT22;14521;48.148;-1.656;2023-05-07T04:26:58;21.10;95.30
26964;DHT22;14521;48.148;-1.656;2023-05-07T04:30:21;21.10;95.20
26964;DHT22;14521;48.148;-1.656;2023-05-07T04:33:44;21.10;95.30
26964;DHT22;14521;48.148;-1.656;2023-05-07T04:37:09;21.10;95.30
26964;DHT22;14521;48.148;-1.656;2023-05-07T04:40:33;21.10;95.20
26964;DHT22;14521;48.148;-1.656;2023-05-07T04:43:57;21.10;95.60
26964;DHT22;14521;48.148;-1.656;2023-05-07T04:47:24;21.10;95.30
26964;DHT22;14521;48.148;-1.656;2023-05-07T04:50:48;21.10;95.30
26964;DHT22;14521;48.148;-1.656;2023-05-07T04:54:11;21.10;95.30
26964;DHT22;14521;48.148;-1.656;2023-05-07T04:57:34;21.10;95.30
26964;DHT22;14521;48.148;-1.656;2023-05-07T05:00:57;21.10;95.40
26964;DHT22;14521;48.148;-1.656;2023-05-07T05:04:19;21.10;95.30
26964;DHT22;14521;48.148;-1.656;2023-05-07T05:07:42;21.10;95.40
26964;DHT22;14521;48.148;-1.656;2023-05-07T05:11:04;21.10;95.80
26964;DHT22;14521;48.148;-1.656;2023-05-07T05:14:29;21.10;95.40
26964;DHT22;14521;48.148;-1.656;2023-05-07T05:17:52;21.10;95.30
26964;DHT22;14521;48.148;-1.656;2023-05-07T05:21:14;21.10;95.40
26964;DHT22;14521;48.148;-1.656;2023-05-07T05:24:39;21.10;95.40
26964;DHT22;14521;48.148;-1.656;2023-05-07T05:28:01;21.10;95.40
26964;DHT22;14521;48.148;-1.656;2023-05-07T05:31:25;21.10;95.40
26964;DHT22;14521;48.148;-1.656;2023-05-07T05:34:47;21.10;95.40
26964;DHT22;14521;48.148;-1.656;2023-05-07T05:38:10;21.10;95.40
26964;DHT22;14521;48.148;-1.656;2023-05-07T05:41:33;21.10;95.40
26964;DHT22;14521;48.148;-1.656;2023-05-07T05:44:57;21.10;95.50
26964;DHT22;14521;48.148;-1.656;2023-05-07T05:48:21;21.10;95.50
26964;DHT22;14521;48.148;-1.656;2023-05-07T05:51:44;21.10;95.50
26964;DHT22;14521;48.148;-1.656;2023-05-07T05:55:08;21.10;95.50
26964;DHT22;14521;48.148;-1.656;2023-05-07T05:58:31;21.10;95.50
26964;DHT22;14521;48.148;-1.656;2023-05-07T06:01:57;21.10;95.50
26964;DHT22;14521;48.148;-1.656;2023-05-07T06:05:20;21.10;95.60
26964;DHT22;14521;48.148;-1.656;2023-05-07T06:08:46;21.00;95.50
26964;DHT22;14521;48.148;-1.656;2023-05-07T06:12:13;21.10;95.60
26964;DHT22;14521;48.148;-1.656;2023-05-07T06:15:36;21.10;95.60
26964;DHT22;14521;48.148;-1.656;2023-05-07T06:19:03;21.00;95.50
26964;DHT22;14521;48.148;-1.656;2023-05-07T06:22:25;21.10;95.60
26964;DHT22;14521;48.148;-1.656;2023-05-07T06:25:50;21.00;95.60
26964;DHT22;14521;48.148;-1.656;2023-05-07T06:29:15;21.10;95.60
26964;DHT22;14521;48.148;-1.656;2023-05-07T06:32:39;21.00;95.60
26964;DHT22;14521;48.148;-1.656;2023-05-07T06:36:03;21.00;95.60
26964;DHT22;14521;48.148;-1.656;2023-05-07T06:39:26;21.10;95.70
26964;DHT22;14521;48.148;-1.656;2023-05-07T06:42:48;21.10;95.70
26964;DHT22;14521;48.148;-1.656;2023-05-07T06:46:29;21.00;95.70
26964;DHT22;14521;48.148;-1.656;2023-05-07T06:49:52;21.10;95.70
26964;DHT22;14521;48.148;-1.656;2023-05-07T06:53:18;21.10;95.70
26964;DHT22;14521;48.148;-1.656;2023-05-07T06:56:40;21.00;95.70
26964;DHT22;14521;48.148;-1.656;2023-05-07T07:00:04;21.10;95.70
26964;DHT22;14521;48.148;-1.656;2023-05-07T07:03:36;21.00;95.80
26964;DHT22;14521;48.148;-1.656;2023-05-07T07:06:59;21.10;95.80
26964;DHT22;14521;48.148;-1.656;2023-05-07T07:10:23;21.00;95.80
26964;DHT22;14521;48.148;-1.656;2023-05-07T07:13:46;21.00;95.90
26964;DHT22;14521;48.148;-1.656;2023-05-07T07:17:09;21.00;95.90
26964;DHT22;14521;48.148;-1.656;2023-05-07T07:20:31;21.00;95.90
26964;DHT22;14521;48.148;-1.656;2023-05-07T07:23:54;21.00;95.90
26964;DHT22;14521;48.148;-1.656;2023-05-07T07:27:16;21.00;96.00
26964;DHT22;14521;48.148;-1.656;2023-05-07T07:30:39;21.00;96.20
26964;DHT22;14521;48.148;-1.656;2023-05-07T07:34:02;21.00;95.90
26964;DHT22;14521;48.148;-1.656;2023-05-07T07:37:24;21.00;96.30
26964;DHT22;14521;48.148;-1.656;2023-05-07T07:40:47;21.00;96.30
26964;DHT22;14521;48.148;-1.656;2023-05-07T07:44:10;21.10;96.50
26964;DHT22;14521;48.148;-1.656;2023-05-07T07:47:40;21.10;96.40
26964;DHT22;14521;48.148;-1.656;2023-05-07T07:51:02;21.10;96.50
26964;DHT22;14521;48.148;-1.656;2023-05-07T07:54:25;21.20;96.80
26964;DHT22;14521;48.148;-1.656;2023-05-07T07:57:49;21.20;96.70
26964;DHT22;14521;48.148;-1.656;2023-05-07T08:01:12;21.20;96.70
26964;DHT22;14521;48.148;-1.656;2023-05-07T08:04:37;21.30;96.70
26964;DHT22;14521;48.148;-1.656;2023-05-07T08:08:01;21.30;96.90
26964;DHT22;14521;48.148;-1.656;2023-05-07T08:11:28;21.30;97.00
26964;DHT22;14521;48.148;-1.656;2023-05-07T08:14:51;21.40;97.00
26964;DHT22;14521;48.148;-1.656;2023-05-07T08:18:13;21.40;97.00
26964;DHT22;14521;48.148;-1.656;2023-05-07T08:21:39;21.40;97.20
26964;DHT22;14521;48.148;-1.656;2023-05-07T08:25:03;21.40;97.20
26964;DHT22;14521;48.148;-1.656;2023-05-07T08:28:26;21.40;97.10
26964;DHT22;14521;48.148;-1.656;2023-05-07T08:31:49;21.40;97.50
26964;DHT22;14521;48.148;-1.656;2023-05-07T08:35:11;21.40;97.30
26964;DHT22;14521;48.148;-1.656;2023-05-07T08:38:34;21.50;97.50
26964;DHT22;14521;48.148;-1.656;2023-05-07T08:42:00;21.50;97.50
26964;DHT22;14521;48.148;-1.656;2023-05-07T08:45:26;21.40;97.80
26964;DHT22;14521;48.148;-1.656;2023-05-07T08:48:50;21.40;97.60
26964;DHT22;14521;48.148;-1.656;2023-05-07T08:52:14;21.60;97.30
26964;DHT22;14521;48.148;-1.656;2023-05-07T08:55:36;21.60;97.30
26964;DHT22;14521;48.148;-1.656;2023-05-07T08:58:59;21.60;97.00
26964;DHT22;14521;48.148;-1.656;2023-05-07T09:02:23;21.60;96.60
26964;DHT22;14521;48.148;-1.656;2023-05-07T09:05:46;21.40;96.80
26964;DHT22;14521;48.148;-1.656;2023-05-07T09:09:13;21.30;97.10
26964;DHT22;14521;48.148;-1.656;2023-05-07T09:12:36;21.30;97.30
26964;DHT22;14521;48.148;-1.656;2023-05-07T09:16:10;21.20;97.30
26964;DHT22;14521;48.148;-1.656;2023-05-07T09:19:35;21.30;97.70
26964;DHT22;14521;48.148;-1.656;2023-05-07T09:23:00;21.30;98.10
26964;DHT22;14521;48.148;-1.656;2023-05-07T09:26:24;21.50;97.60
26964;DHT22;14521;48.148;-1.656;2023-05-07T09:29:46;21.60;97.30
26964;DHT22;14521;48.148;-1.656;2023-05-07T09:33:10;21.60;97.10
26964;DHT22;14521;48.148;-1.656;2023-05-07T09:36:36;21.60;97.00
26964;DHT22;14521;48.148;-1.656;2023-05-07T09:39:58;21.60;96.90
26964;DHT22;14521;48.148;-1.656;2023-05-07T09:43:24;21.50;97.00
26964;DHT22;14521;48.148;-1.656;2023-05-07T09:46:54;21.50;97.00
26964;DHT22;14521;48.148;-1.656;2023-05-07T09:50:44;21.50;97.10
26964;DHT22;14521;48.148;-1.656;2023-05-07T09:54:11;21.40;97.00
26964;DHT22;14521;48.148;-1.656;2023-05-07T09:57:37;21.40;97.20
26964;DHT22;14521;48.148;-1.656;2023-05-07T10:01:02;21.40;97.20
26964;DHT22;14521;48.148;-1.656;2023-05-07T10:04:26;21.40;97.10
26964;DHT22;14521;48.148;-1.656;2023-05-07T10:07:49;21.40;97.20
26964;DHT22;14521;48.148;-1.656;2023-05-07T10:11:13;21.40;97.20
26964;DHT22;14521;48.148;-1.656;2023-05-07T10:14:38;21.40;97.30
26964;DHT22;14521;48.148;-1.656;2023-05-07T10:18:03;21.30;97.10
26964;DHT22;14521;48.148;-1.656;2023-05-07T10:21:27;21.30;97.10
26964;DHT22;14521;48.148;-1.656;2023-05-07T10:24:56;21.30;97.10
26964;DHT22;14521;48.148;-1.656;2023-05-07T10:28:23;21.40;97.00
26964;DHT22;14521;48.148;-1.656;2023-05-07T10:35:30;21.30;96.90
26964;DHT22;14521;48.148;-1.656;2023-05-07T10:38:56;21.30;96.80
26964;DHT22;14521;48.148;-1.656;2023-05-07T10:42:19;21.20;97.10
26964;DHT22;14521;48.148;-1.656;2023-05-07T10:46:15;21.30;97.80
26964;DHT22;14521;48.148;-1.656;2023-05-07T10:56:46;21.50;99.00
26964;DHT22;14521;48.148;-1.656;2023-05-07T11:04:15;21.60;98.80
26964;DHT22;14521;48.148;-1.656;2023-05-07T11:08:04;21.70;99.40
26964;DHT22;14521;48.148;-1.656;2023-05-07T11:11:45;21.60;98.40
26964;DHT22;14521;48.148;-1.656;2023-05-07T11:15:38;21.50;98.50
26964;DHT22;14521;48.148;-1.656;2023-05-07T11:19:09;21.50;98.70
26964;DHT22;14521;48.148;-1.656;2023-05-07T11:22:37;21.70;99.00
26964;DHT22;14521;48.148;-1.656;2023-05-07T11:26:25;21.70;98.60
26964;DHT22;14521;48.148;-1.656;2023-05-07T11:29:48;21.80;98.10
26964;DHT22;14521;48.148;-1.656;2023-05-07T11:33:10;21.90;98.40
26964;DHT22;14521;48.148;-1.656;2023-05-07T11:36:35;21.90;97.20
26964;DHT22;14521;48.148;-1.656;2023-05-07T11:40:07;22.00;97.40
26964;DHT22;14521;48.148;-1.656;2023-05-07T11:43:34;22.00;98.50
26964;DHT22;14521;48.148;-1.656;2023-05-07T11:46:58;22.00;98.80
26964;DHT22;14521;48.148;-1.656;2023-05-07T11:50:21;22.00;96.30
26964;DHT22;14521;48.148;-1.656;2023-05-07T11:53:44;21.90;96.30
26964;DHT22;14521;48.148;-1.656;2023-05-07T11:57:14;21.90;97.00
26964;DHT22;14521;48.148;-1.656;2023-05-07T12:00:36;21.90;97.00
26964;DHT22;14521;48.148;-1.656;2023-05-07T12:04:03;21.80;97.00
26964;DHT22;14521;48.148;-1.656;2023-05-07T12:07:26;21.70;97.00
26964;DHT22;14521;48.148;-1.656;2023-05-07T12:10:49;21.70;97.70
26964;DHT22;14521;48.148;-1.656;2023-05-07T12:14:12;21.80;97.00
26964;DHT22;14521;48.148;-1.656;2023-05-07T12:17:34;21.70;96.60
26964;DHT22;14521;48.148;-1.656;2023-05-07T12:20:57;21.70;97.20
26964;DHT22;14521;48.148;-1.656;2023-05-07T12:24:21;21.80;98.00
26964;DHT22;14521;48.148;-1.656;2023-05-07T12:27:43;21.80;98.50
26964;DHT22;14521;48.148;-1.656;2023-05-07T12:31:06;21.90;97.30
26964;DHT22;14521;48.148;-1.656;2023-05-07T12:34:29;22.00;97.60
26964;DHT22;14521;48.148;-1.656;2023-05-07T12:37:58;22.00;97.50
26964;DHT22;14521;48.148;-1.656;2023-05-07T12:41:21;22.00;97.40
26964;DHT22;14521;48.148;-1.656;2023-05-07T12:44:48;22.00;97.80
26964;DHT22;14521;48.148;-1.656;2023-05-07T12:48:10;22.00;97.70
26964;DHT22;14521;48.148;-1.656;2023-05-07T12:51:35;22.00;98.00
26964;DHT22;14521;48.148;-1.656;2023-05-07T12:55:07;22.10;97.30
26964;DHT22;14521;48.148;-1.656;2023-05-07T12:58:33;22.00;96.90
26964;DHT22;14521;48.148;-1.656;2023-05-07T13:01:56;22.10;97.20
26964;DHT22;14521;48.148;-1.656;2023-05-07T13:05:18;22.10;97.40
26964;DHT22;14521;48.148;-1.656;2023-05-07T13:08:41;22.10;96.80
26964;DHT22;14521;48.148;-1.656;2023-05-07T13:12:07;22.10;96.40
26964;DHT22;14521;48.148;-1.656;2023-05-07T13:15:29;22.10;96.90
26964;DHT22;14521;48.148;-1.656;2023-05-07T13:18:51;22.10;97.80
26964;DHT22;14521;48.148;-1.656;2023-05-07T13:22:14;22.10;97.50
26964;DHT22;14521;48.148;-1.656;2023-05-07T13:25:36;22.20;97.40
26964;DHT22;14521;48.148;-1.656;2023-05-07T13:29:00;22.20;97.10
26964;DHT22;14521;48.148;-1.656;2023-05-07T13:32:22;22.10;98.10
26964;DHT22;14521;48.148;-1.656;2023-05-07T13:35:46;22.10;98.50
26964;DHT22;14521;48.148;-1.656;2023-05-07T13:39:08;22.10;98.20
26964;DHT22;14521;48.148;-1.656;2023-05-07T13:42:31;22.00;98.20
26964;DHT22;14521;48.148;-1.656;2023-05-07T13:45:53;22.00;98.50
26964;DHT22;14521;48.148;-1.656;2023-05-07T13:49:15;22.00;98.70
26964;DHT22;14521;48.148;-1.656;2023-05-07T13:52:38;22.00;98.80
26964;DHT22;14521;48.148;-1.656;2023-05-07T13:56:02;21.90;98.70
26964;DHT22;14521;48.148;-1.656;2023-05-07T13:59:26;21.90;98.90
26964;DHT22;14521;48.148;-1.656;2023-05-07T14:02:49;21.90;99.10
26964;DHT22;14521;48.148;-1.656;2023-05-07T14:06:11;21.90;98.90
26964;DHT22;14521;48.148;-1.656;2023-05-07T14:09:33;21.90;98.90
26964;DHT22;14521;48.148;-1.656;2023-05-07T14:12:55;21.90;99.20
26964;DHT22;14521;48.148;-1.656;2023-05-07T14:16:18;21.90;99.50
26964;DHT22;14521;48.148;-1.656;2023-05-07T14:19:40;21.90;99.30
26964;DHT22;14521;48.148;-1.656;2023-05-07T14:23:03;21.90;99.40
26964;DHT22;14521;48.148;-1.656;2023-05-07T14:26:25;21.90;99.30
26964;DHT22;14521;48.148;-1.656;2023-05-07T14:29:49;21.90;99.60
26964;DHT22;14521;48.148;-1.656;2023-05-07T14:33:13;21.90;99.30
26964;DHT22;14521;48.148;-1.656;2023-05-07T14:36:35;21.90;99.60
26964;DHT22;14521;48.148;-1.656;2023-05-07T14:39:57;21.90;99.40
26964;DHT22;14521;48.148;-1.656;2023-05-07T14:43:19;21.90;99.40
26964;DHT22;14521;48.148;-1.656;2023-05-07T14:46:43;21.90;99.40
26964;DHT22;14521;48.148;-1.656;2023-05-07T14:50:06;21.90;99.70
26964;DHT22;14521;48.148;-1.656;2023-05-07T14:53:28;21.90;99.10
26964;DHT22;14521;48.148;-1.656;2023-05-07T14:56:51;21.90;99.10
26964;DHT22;14521;48.148;-1.656;2023-05-07T15:00:13;21.90;99.30
26964;DHT22;14521;48.148;-1.656;2023-05-07T15:03:36;21.90;99.20
26964;DHT22;14521;48.148;-1.656;2023-05-07T15:06:58;21.90;98.80
26964;DHT22;14521;48.148;-1.656;2023-05-07T15:10:21;21.80;99.20
26964;DHT22;14521;48.148;-1.656;2023-05-07T15:13:43;21.70;99.40
26964;DHT22;14521;48.148;-1.656;2023-05-07T15:17:05;21.80;99.50
26964;DHT22;14521;48.148;-1.656;2023-05-07T15:20:28;21.90;99.70
26964;DHT22;14521;48.148;-1.656;2023-05-07T15:23:50;21.90;99.60
26964;DHT22;14521;48.148;-1.656;2023-05-07T15:27:12;21.90;99.90
26964;DHT22;14521;48.148;-1.656;2023-05-07T15:30:35;21.90;99.90
26964;DHT22;14521;48.148;-1.656;2023-05-07T15:33:57;21.90;99.90
26964;DHT22;14521;48.148;-1.656;2023-05-07T15:37:19;21.90;99.90
26964;DHT22;14521;48.148;-1.656;2023-05-07T15:40:41;21.90;99.90
26964;DHT22;14521;48.148;-1.656;2023-05-07T15:44:04;21.90;99.90
26964;DHT22;14521;48.148;-1.656;2023-05-07T15:47:26;21.90;99.90
26964;DHT22;14521;48.148;-1.656;2023-05-07T15:50:49;21.90;99.90
26964;DHT22;14521;48.148;-1.656;2023-05-07T15:54:11;21.90;99.90
26964;DHT22;14521;48.148;-1.656;2023-05-07T15:57:33;22.00;99.90
26964;DHT22;14521;48.148;-1.656;2023-05-07T16:00:55;22.00;99.90
26964;DHT22;14521;48.148;-1.656;2023-05-07T16:04:18;22.00;99.90
26964;DHT22;14521;48.148;-1.656;2023-05-07T16:07:40;22.00;99.90
26964;DHT22;14521;48.148;-1.656;2023-05-07T16:11:05;21.90;99.90
26964;DHT22;14521;48.148;-1.656;2023-05-07T16:14:27;22.00;99.90
26964;DHT22;14521;48.148;-1.656;2023-05-07T16:17:50;21.90;99.90
26964;DHT22;14521;48.148;-1.656;2023-05-07T16:21:12;22.00;99.90
26964;DHT22;14521;48.148;-1.656;2023-05-07T16:24:35;21.90;99.90
26964;DHT22;14521;48.148;-1.656;2023-05-07T16:27:57;21.90;99.90
26964;DHT22;14521;48.148;-1.656;2023-05-07T16:31:19;21.90;99.90
26964;DHT22;14521;48.148;-1.656;2023-05-07T16:34:42;21.90;99.90
26964;DHT22;14521;48.148;-1.656;2023-05-07T16:38:04;22.00;99.90
26964;DHT22;14521;48.148;-1.656;2023-05-07T16:41:31;22.00;99.90
26964;DHT22;14521;48.148;-1.656;2023-05-07T16:44:54;22.00;99.90
26964;DHT22;14521;48.148;-1.656;2023-05-07T16:48:17;21.90;99.90
26964;DHT22;14521;48.148;-1.656;2023-05-07T16:51:42;21.90;99.90
26964;DHT22;14521;48.148;-1.656;2023-05-07T16:55:05;21.90;99.90
26964;DHT22;14521;48.148;-1.656;2023-05-07T16:58:28;21.90;99.90
26964;DHT22;14521;48.148;-1.656;2023-05-07T17:01:50;21.90;99.90
26964;DHT22;14521;48.148;-1.656;2023-05-07T17:05:13;21.90;99.90
26964;DHT22;14521;48.148;-1.656;2023-05-07T17:08:36;21.90;99.90
26964;DHT22;14521;48.148;-1.656;2023-05-07T17:12:00;21.90;99.90
26964;DHT22;14521;48.148;-1.656;2023-05-07T17:15:22;21.90;99.90
26964;DHT22;14521;48.148;-1.656;2023-05-07T17:18:44;21.90;99.90
26964;DHT22;14521;48.148;-1.656;2023-05-07T17:22:07;21.90;99.90
26964;DHT22;14521;48.148;-1.656;2023-05-07T17:25:31;21.90;99.90
26964;DHT22;14521;48.148;-1.656;2023-05-07T17:28:53;22.00;99.90
26964;DHT22;14521;48.148;-1.656;2023-05-07T17:32:16;22.00;99.90
26964;DHT22;14521;48.148;-1.656;2023-05-07T17:35:38;22.00;99.20
26964;DHT22;14521;48.148;-1.656;2023-05-07T17:39:00;21.90;98.10
26964;DHT22;14521;48.148;-1.656;2023-05-07T17:42:23;21.90;98.10
26964;DHT22;14521;48.148;-1.656;2023-05-07T17:45:45;21.90;97.70
26964;DHT22;14521;48.148;-1.656;2023-05-07T17:49:09;21.80;97.70
26964;DHT22;14521;48.148;-1.656;2023-05-07T17:52:31;21.80;97.60
26964;DHT22;14521;48.148;-1.656;2023-05-07T17:55:53;21.70;95.30
26964;DHT22;14521;48.148;-1.656;2023-05-07T17:59:16;21.50;95.50
26964;DHT22;14521;48.148;-1.656;2023-05-07T18:02:38;21.50;95.30
26964;DHT22;14521;48.148;-1.656;2023-05-07T18:06:02;21.50;95.10
26964;DHT22;14521;48.148;-1.656;2023-05-07T18:09:24;21.40;94.90
26964;DHT22;14521;48.148;-1.656;2023-05-07T18:12:46;21.40;95.90
26964;DHT22;14521;48.148;-1.656;2023-05-07T18:16:09;21.40;94.60
26964;DHT22;14521;48.148;-1.656;2023-05-07T18:19:31;21.30;94.60
26964;DHT22;14521;48.148;-1.656;2023-05-07T18:22:54;21.20;94.40
26964;DHT22;14521;48.148;-1.656;2023-05-07T18:26:16;21.20;95.10
26964;DHT22;14521;48.148;-1.656;2023-05-07T18:29:38;21.30;94.70
26964;DHT22;14521;48.148;-1.656;2023-05-07T18:33:01;21.30;95.90
26964;DHT22;14521;48.148;-1.656;2023-05-07T18:36:24;21.30;95.20
26964;DHT22;14521;48.148;-1.656;2023-05-07T18:39:46;21.40;96.00
26964;DHT22;14521;48.148;-1.656;2023-05-07T18:43:09;21.50;96.00
26964;DHT22;14521;48.148;-1.656;2023-05-07T18:46:31;21.50;95.00
26964;DHT22;14521;48.148;-1.656;2023-05-07T18:49:54;21.50;96.20
26964;DHT22;14521;48.148;-1.656;2023-05-07T18:53:16;21.60;96.10
26964;DHT22;14521;48.148;-1.656;2023-05-07T18:56:40;21.50;96.30
26964;DHT22;14521;48.148;-1.656;2023-05-07T19:00:02;21.60;97.40
26964;DHT22;14521;48.148;-1.656;2023-05-07T19:03:28;21.50;96.90
26964;DHT22;14521;48.148;-1.656;2023-05-07T19:06:50;21.50;96.70
26964;DHT22;14521;48.148;-1.656;2023-05-07T19:10:13;21.50;96.60
26964;DHT22;14521;48.148;-1.656;2023-05-07T19:13:36;21.50;96.50
26964;DHT22;14521;48.148;-1.656;2023-05-07T19:16:58;21.50;97.30
26964;DHT22;14521;48.148;-1.656;2023-05-07T19:20:21;21.40;96.00
26964;DHT22;14521;48.148;-1.656;2023-05-07T19:23:43;21.50;96.50
26964;DHT22;14521;48.148;-1.656;2023-05-07T19:27:07;21.50;97.00
26964;DHT22;14521;48.148;-1.656;2023-05-07T19:30:32;21.60;97.40
26964;DHT22;14521;48.148;-1.656;2023-05-07T19:33:54;21.60;97.70
26964;DHT22;14521;48.148;-1.656;2023-05-07T19:37:16;21.70;97.90
26964;DHT22;14521;48.148;-1.656;2023-05-07T19:40:38;21.80;97.80
26964;DHT22;14521;48.148;-1.656;2023-05-07T19:44:01;21.70;97.90
26964;DHT22;14521;48.148;-1.656;2023-05-07T19:47:23;21.80;98.80
26964;DHT22;14521;48.148;-1.656;2023-05-07T19:50:47;21.70;96.90
26964;DHT22;14521;48.148;-1.656;2023-05-07T19:54:10;21.60;96.70
26964;DHT22;14521;48.148;-1.656;2023-05-07T19:57:33;21.50;96.60
26964;DHT22;14521;48.148;-1.656;2023-05-07T20:00:55;21.50;96.90
26964;DHT22;14521;48.148;-1.656;2023-05-07T20:04:17;21.50;96.60
26964;DHT22;14521;48.148;-1.656;2023-05-07T20:07:40;21.50;96.30
26964;DHT22;14521;48.148;-1.656;2023-05-07T20:11:02;21.40;96.20
26964;DHT22;14521;48.148;-1.656;2023-05-07T20:14:25;21.40;96.00
26964;DHT22;14521;48.148;-1.656;2023-05-07T20:17:48;21.30;96.00
26964;DHT22;14521;48.148;-1.656;2023-05-07T20:21:10;21.30;95.90
26964;DHT22;14521;48.148;-1.656;2023-05-07T20:24:37;21.20;95.80
26964;DHT22;14521;48.148;-1.656;2023-05-07T20:28:00;21.30;95.70
26964;DHT22;14521;48.148;-1.656;2023-05-07T20:31:22;21.20;95.60
26964;DHT22;14521;48.148;-1.656;2023-05-07T20:34:44;21.20;95.30
26964;DHT22;14521;48.148;-1.656;2023-05-07T20:38:07;21.20;95.80
26964;DHT22;14521;48.148;-1.656;2023-05-07T20:41:29;21.20;95.30
26964;DHT22;14521;48.148;-1.656;2023-05-07T20:44:52;21.10;95.10
26964;DHT22;14521;48.148;-1.656;2023-05-07T20:48:14;21.20;95.10
26964;DHT22;14521;48.148;-1.656;2023-05-07T20:51:36;21.20;95.10
26964;DHT22;14521;48.148;-1.656;2023-05-07T20:54:58;21.20;95.30
26964;DHT22;14521;48.148;-1.656;2023-05-07T20:58:21;21.30;96.20
26964;DHT22;14521;48.148;-1.656;2023-05-07T21:01:47;21.30;96.20
26964;DHT22;14521;48.148;-1.656;2023-05-07T21:05:10;21.40;96.20
26964;DHT22;14521;48.148;-1.656;2023-05-07T21:08:32;21.40;96.30
26964;DHT22;14521;48.148;-1.656;2023-05-07T21:11:55;21.40;96.40
26964;DHT22;14521;48.148;-1.656;2023-05-07T21:15:18;21.50;96.50
26964;DHT22;14521;48.148;-1.656;2023-05-07T21:18:41;21.40;96.50
26964;DHT22;14521;48.148;-1.656;2023-05-07T21:22:04;21.40;96.50